sensor_id;sensor_type;location;lat;lon;timestamp;temperature;humidity
796;DHT22;381;48.770;9.188;2022-12-29T00:03:02;10.40;99.90
796;DHT22;381;48.770;9.188;2022-12-29T00:08:05;10.40;99.90
796;DHT22;381;48.770;9.188;2022-12-29T00:13:07;10.40;99.90
796;DHT22;381;48.770;9.188;2022-12-29T00:18:27;10.50;99.90
796;DHT22;381;48.770;9.188;2022-12-29T00:23:30;10.60;99.90
796;DHT22;381;48.770;9.188;2022-12-29T00:28:50;10.60;99.90
796;DHT22;381;48.770;9.188;2022-12-29T00:34:11;10.70;99.90
796;DHT22;381;48.770;9.188;2022-12-29T00:39:32;10.70;99.90
796;DHT22;381;48.770;9.188;2022-12-29T00:44:52;10.80;99.90
796;DHT22;381;48.770;9.188;2022-12-29T00:49:54;10.80;99.90
796;DHT22;381;48.770;9.188;2022-12-29T00:54:57;10.90;99.90
796;DHT22;381;48.770;9.188;2022-12-29T00:59:59;11.00;99.90
796;DHT22;381;48.770;9.188;2022-12-29T01:05:02;11.10;99.90
796;DHT22;381;48.770;9.188;2022-12-29T01:10:06;11.10;99.90
796;DHT22;381;48.770;9.188;2022-12-29T01:15:12;11.20;99.90
796;DHT22;381;48.770;9.188;2022-12-29T01:20:16;11.30;99.90
796;DHT22;381;48.770;9.188;2022-12-29T01:25:19;11.40;99.90
796;DHT22;381;48.770;9.188;2022-12-29T01:30:21;11.50;99.90
796;DHT22;381;48.770;9.188;2022-12-29T01:35:24;11.50;99.90
796;DHT22;381;48.770;9.188;2022-12-29T01:40:27;11.50;99.90
796;DHT22;381;48.770;9.188;2022-12-29T01:45:29;11.50;99.90
796;DHT22;381;48.770;9.188;2022-12-29T01:50:33;11.50;99.90
796;DHT22;381;48.770;9.188;2022-12-29T01:55:41;11.60;99.90
796;DHT22;381;48.770;9.188;2022-12-29T02:00:43;11.60;99.90
796;DHT22;381;48.770;9.188;2022-12-29T02:05:49;11.50;99.90
796;DHT22;381;48.770;9.188;2022-12-29T02:10:55;11.40;99.90
796;DHT22;381;48.770;9.188;2022-12-29T02:16:04;11.40;99.90
796;DHT22;381;48.770;9.188;2022-12-29T02:21:41;11.40;99.90
796;DHT22;381;48.770;9.188;2022-12-29T02:27:09;11.30;99.90
796;DHT22;381;48.770;9.188;2022-12-29T02:32:27;11.30;99.90
796;DHT22;381;48.770;9.188;2022-12-29T02:37:40;11.30;99.90
796;DHT22;381;48.770;9.188;2022-12-29T02:42:48;11.30;99.90
796;DHT22;381;48.770;9.188;2022-12-29T02:47:56;11.40;99.90
796;DHT22;381;48.770;9.188;2022-12-29T02:53:04;11.40;99.90
796;DHT22;381;48.770;9.188;2022-12-29T02:58:17;11.40;99.90
796;DHT22;381;48.770;9.188;2022-12-29T03:03:26;11.50;99.90
796;DHT22;381;48.770;9.188;2022-12-29T03:08:39;11.50;99.90
796;DHT22;381;48.770;9.188;2022-12-29T03:13:46;11.70;99.90
796;DHT22;381;48.770;9.188;2022-12-29T03:19:14;11.70;99.90
796;DHT22;381;48.770;9.188;2022-12-29T03:24:22;11.80;99.90
796;DHT22;381;48.770;9.188;2022-12-29T03:29:26;11.80;99.90
796;DHT22;381;48.770;9.188;2022-12-29T03:34:31;11.90;99.60
796;DHT22;381;48.770;9.188;2022-12-29T03:39:35;11.90;99.90
796;DHT22;381;48.770;9.188;2022-12-29T03:44:40;11.90;99.90
796;DHT22;381;48.770;9.188;2022-12-29T03:49:45;12.00;99.90
796;DHT22;381;48.770;9.188;2022-12-29T03:54:47;12.10;99.60
796;DHT22;381;48.770;9.188;2022-12-29T03:59:49;12.10;99.90
796;DHT22;381;48.770;9.188;2022-12-29T04:04:53;12.20;99.90
796;DHT22;381;48.770;9.188;2022-12-29T04:09:56;12.20;99.90
796;DHT22;381;48.770;9.188;2022-12-29T04:15:01;12.20;99.90
796;DHT22;381;48.770;9.188;2022-12-29T04:20:06;12.20;99.90
796;DHT22;381;48.770;9.188;2022-12-29T04:25:30;12.20;99.90
796;DHT22;381;48.770;9.188;2022-12-29T04:30:33;12.10;99.90
796;DHT22;381;48.770;9.188;2022-12-29T04:35:45;12.00;99.90
796;DHT22;381;48.770;9.188;2022-12-29T04:40:48;12.00;99.90
796;DHT22;381;48.770;9.188;2022-12-29T04:45:52;12.00;99.90
796;DHT22;381;48.770;9.188;2022-12-29T04:51:02;12.00;99.90
796;DHT22;381;48.770;9.188;2022-12-29T04:56:10;12.00;99.90
796;DHT22;381;48.770;9.188;2022-12-29T05:01:13;12.00;99.90
796;DHT22;381;48.770;9.188;2022-12-29T05:06:16;12.00;99.90
796;DHT22;381;48.770;9.188;2022-12-29T05:11:19;12.00;99.90
796;DHT22;381;48.770;9.188;2022-12-29T05:16:23;12.00;99.90
796;DHT22;381;48.770;9.188;2022-12-29T05:21:28;12.00;99.90
796;DHT22;381;48.770;9.188;2022-12-29T05:26:30;12.10;99.90
796;DHT22;381;48.770;9.188;2022-12-29T05:31:44;12.10;99.90
796;DHT22;381;48.770;9.188;2022-12-29T05:36:48;12.00;99.90
796;DHT22;381;48.770;9.188;2022-12-29T05:41:50;12.00;99.90
796;DHT22;381;48.770;9.188;2022-12-29T05:47:11;12.10;99.90
796;DHT22;381;48.770;9.188;2022-12-29T05:52:21;12.10;99.90
796;DHT22;381;48.770;9.188;2022-12-29T05:57:23;12.00;99.90
796;DHT22;381;48.770;9.188;2022-12-29T06:02:35;12.10;99.90
796;DHT22;381;48.770;9.188;2022-12-29T06:07:39;12.20;99.90
796;DHT22;381;48.770;9.188;2022-12-29T06:12:42;12.20;99.90
796;DHT22;381;48.770;9.188;2022-12-29T06:17:44;12.20;99.90
796;DHT22;381;48.770;9.188;2022-12-29T06:22:48;12.20;99.90
796;DHT22;381;48.770;9.188;2022-12-29T06:27:50;12.20;99.90
796;DHT22;381;48.770;9.188;2022-12-29T06:32:52;12.20;99.90
796;DHT22;381;48.770;9.188;2022-12-29T06:37:56;12.20;99.90
796;DHT22;381;48.770;9.188;2022-12-29T06:42:58;12.10;99.90
796;DHT22;381;48.770;9.188;2022-12-29T06:48:26;12.10;99.90
796;DHT22;381;48.770;9.188;2022-12-29T06:53:29;12.10;99.90
796;DHT22;381;48.770;9.188;2022-12-29T06:58:31;12.00;99.90
796;DHT22;381;48.770;9.188;2022-12-29T07:03:33;12.10;99.90
796;DHT22;381;48.770;9.188;2022-12-29T07:08:37;12.00;99.80
796;DHT22;381;48.770;9.188;2022-12-29T07:13:40;11.90;99.90
796;DHT22;381;48.770;9.188;2022-12-29T07:18:42;11.90;99.90
796;DHT22;381;48.770;9.188;2022-12-29T07:23:45;11.80;99.90
796;DHT22;381;48.770;9.188;2022-12-29T07:28:47;11.90;99.90
796;DHT22;381;48.770;9.188;2022-12-29T07:33:49;11.80;99.90
796;DHT22;381;48.770;9.188;2022-12-29T07:38:53;11.70;99.90
796;DHT22;381;48.770;9.188;2022-12-29T07:43:55;11.70;99.90
796;DHT22;381;48.770;9.188;2022-12-29T07:49:20;11.70;99.90
796;DHT22;381;48.770;9.188;2022-12-29T07:54:23;11.70;99.90
796;DHT22;381;48.770;9.188;2022-12-29T07:59:26;11.70;99.90
796;DHT22;381;48.770;9.188;2022-12-29T08:04:28;11.80;99.90
796;DHT22;381;48.770;9.188;2022-12-29T08:09:31;11.90;99.90
796;DHT22;381;48.770;9.188;2022-12-29T08:14:33;11.90;99.90
796;DHT22;381;48.770;9.188;2022-12-29T08:19:35;12.00;99.90
796;DHT22;381;48.770;9.188;2022-12-29T08:24:38;12.00;99.90
796;DHT22;381;48.770;9.188;2022-12-29T08:29:40;12.10;99.90
796;DHT22;381;48.770;9.188;2022-12-29T08:34:43;12.10;99.90
796;DHT22;381;48.770;9.188;2022-12-29T08:39:46;12.10;99.90
796;DHT22;381;48.770;9.188;2022-12-29T08:44:48;12.20;99.90
796;DHT22;381;48.770;9.188;2022-12-29T08:49:50;12.30;99.90
796;DHT22;381;48.770;9.188;2022-12-29T08:54:54;12.40;99.90
796;DHT22;381;48.770;9.188;2022-12-29T08:59:56;12.40;99.90
796;DHT22;381;48.770;9.188;2022-12-29T09:04:58;12.50;99.90
796;DHT22;381;48.770;9.188;2022-12-29T09:10:02;12.50;99.90
796;DHT22;381;48.770;9.188;2022-12-29T09:15:06;12.40;99.90
796;DHT22;381;48.770;9.188;2022-12-29T09:20:09;12.50;99.90
796;DHT22;381;48.770;9.188;2022-12-29T09:25:13;12.60;99.90
796;DHT22;381;48.770;9.188;2022-12-29T09:30:15;12.60;99.90
796;DHT22;381;48.770;9.188;2022-12-29T09:35:17;12.80;99.90
796;DHT22;381;48.770;9.188;2022-12-29T09:40:27;12.80;99.90
796;DHT22;381;48.770;9.188;2022-12-29T09:45:34;12.90;99.90
796;DHT22;381;48.770;9.188;2022-12-29T09:50:39;13.00;99.90
796;DHT22;381;48.770;9.188;2022-12-29T09:55:48;13.20;99.80
796;DHT22;381;48.770;9.188;2022-12-29T10:00:56;13.30;99.90
796;DHT22;381;48.770;9.188;2022-12-29T10:06:05;13.50;99.30
796;DHT22;381;48.770;9.188;2022-12-29T10:11:18;13.60;99.40
796;DHT22;381;48.770;9.188;2022-12-29T10:16:29;13.60;99.70
796;DHT22;381;48.770;9.188;2022-12-29T10:21:42;13.50;99.90
796;DHT22;381;48.770;9.188;2022-12-29T10:26:51;13.50;99.70
796;DHT22;381;48.770;9.188;2022-12-29T10:31:58;13.60;99.80
796;DHT22;381;48.770;9.188;2022-12-29T10:37:04;13.70;99.90
796;DHT22;381;48.770;9.188;2022-12-29T10:42:15;13.80;99.50
796;DHT22;381;48.770;9.188;2022-12-29T10:47:24;13.80;99.90
796;DHT22;381;48.770;9.188;2022-12-29T10:52:27;13.80;99.90
796;DHT22;381;48.770;9.188;2022-12-29T10:57:34;13.90;99.90
796;DHT22;381;48.770;9.188;2022-12-29T11:03:08;13.90;99.90
796;DHT22;381;48.770;9.188;2022-12-29T11:08:14;14.00;99.90
796;DHT22;381;48.770;9.188;2022-12-29T11:13:27;14.10;99.90
796;DHT22;381;48.770;9.188;2022-12-29T11:18:36;14.20;99.50
796;DHT22;381;48.770;9.188;2022-12-29T11:23:42;14.20;99.50
796;DHT22;381;48.770;9.188;2022-12-29T11:28:47;14.30;99.90
796;DHT22;381;48.770;9.188;2022-12-29T11:34:08;14.20;99.90
796;DHT22;381;48.770;9.188;2022-12-29T11:39:26;14.20;99.90
796;DHT22;381;48.770;9.188;2022-12-29T11:44:36;14.10;99.90
796;DHT22;381;48.770;9.188;2022-12-29T11:49:39;14.10;99.90
796;DHT22;381;48.770;9.188;2022-12-29T11:54:42;14.10;99.90
796;DHT22;381;48.770;9.188;2022-12-29T11:59:49;13.90;99.90
796;DHT22;381;48.770;9.188;2022-12-29T12:04:58;13.80;99.90
796;DHT22;381;48.770;9.188;2022-12-29T12:10:04;13.70;99.90
796;DHT22;381;48.770;9.188;2022-12-29T12:15:16;13.70;99.90
796;DHT22;381;48.770;9.188;2022-12-29T12:20:38;13.70;99.90
796;DHT22;381;48.770;9.188;2022-12-29T12:25:45;13.60;99.90
796;DHT22;381;48.770;9.188;2022-12-29T12:30:56;13.60;99.90
796;DHT22;381;48.770;9.188;2022-12-29T12:36:13;13.60;99.90
796;DHT22;381;48.770;9.188;2022-12-29T12:41:26;13.70;99.90
796;DHT22;381;48.770;9.188;2022-12-29T12:52:08;13.70;99.90
796;DHT22;381;48.770;9.188;2022-12-29T12:57:25;13.50;99.90
796;DHT22;381;48.770;9.188;2022-12-29T13:02:40;13.40;99.90
796;DHT22;381;48.770;9.188;2022-12-29T13:07:53;13.30;99.90
796;DHT22;381;48.770;9.188;2022-12-29T13:13:12;13.30;99.90
796;DHT22;381;48.770;9.188;2022-12-29T13:18:25;13.30;99.90
796;DHT22;381;48.770;9.188;2022-12-29T13:23:33;13.30;99.90
796;DHT22;381;48.770;9.188;2022-12-29T13:28:53;13.40;99.90
796;DHT22;381;48.770;9.188;2022-12-29T13:34:03;13.40;99.90
796;DHT22;381;48.770;9.188;2022-12-29T13:39:12;13.40;99.90
796;DHT22;381;48.770;9.188;2022-12-29T13:44:18;13.50;99.90
796;DHT22;381;48.770;9.188;2022-12-29T13:49:23;13.50;99.90
796;DHT22;381;48.770;9.188;2022-12-29T13:54:34;13.40;99.90
796;DHT22;381;48.770;9.188;2022-12-29T13:59:45;13.50;99.90
796;DHT22;381;48.770;9.188;2022-12-29T14:04:59;13.40;99.90
796;DHT22;381;48.770;9.188;2022-12-29T14:10:02;13.40;99.90
796;DHT22;381;48.770;9.188;2022-12-29T14:15:13;13.40;99.90
796;DHT22;381;48.770;9.188;2022-12-29T14:20:22;13.40;99.90
796;DHT22;381;48.770;9.188;2022-12-29T14:25:56;13.40;99.90
796;DHT22;381;48.770;9.188;2022-12-29T14:30:59;13.40;99.90
796;DHT22;381;48.770;9.188;2022-12-29T14:36:23;13.30;99.90
796;DHT22;381;48.770;9.188;2022-12-29T14:41:29;13.30;99.90
796;DHT22;381;48.770;9.188;2022-12-29T14:46:54;13.20;99.90
796;DHT22;381;48.770;9.188;2022-12-29T14:52:07;13.20;99.90
796;DHT22;381;48.770;9.188;2022-12-29T15:02:40;13.10;99.90
796;DHT22;381;48.770;9.188;2022-12-29T15:07:44;13.10;99.90
796;DHT22;381;48.770;9.188;2022-12-29T15:12:51;13.10;99.90
796;DHT22;381;48.770;9.188;2022-12-29T15:17:54;13.00;99.90
796;DHT22;381;48.770;9.188;2022-12-29T15:23:00;13.00;99.90
796;DHT22;381;48.770;9.188;2022-12-29T15:28:05;13.00;99.90
796;DHT22;381;48.770;9.188;2022-12-29T15:33:17;13.00;99.90
796;DHT22;381;48.770;9.188;2022-12-29T15:38:24;13.00;99.90
796;DHT22;381;48.770;9.188;2022-12-29T15:43:44;12.90;99.90
796;DHT22;381;48.770;9.188;2022-12-29T15:48:49;12.90;99.90
796;DHT22;381;48.770;9.188;2022-12-29T15:53:54;12.80;99.90
796;DHT22;381;48.770;9.188;2022-12-29T15:58:56;12.90;99.90
796;DHT22;381;48.770;9.188;2022-12-29T16:03:59;12.90;99.90
796;DHT22;381;48.770;9.188;2022-12-29T16:09:05;12.90;99.90
796;DHT22;381;48.770;9.188;2022-12-29T16:14:09;12.90;99.90
796;DHT22;381;48.770;9.188;2022-12-29T16:19:15;12.80;99.90
796;DHT22;381;48.770;9.188;2022-12-29T16:24:24;12.70;99.90
796;DHT22;381;48.770;9.188;2022-12-29T16:29:28;12.60;99.90
796;DHT22;381;48.770;9.188;2022-12-29T16:34:33;12.50;99.90
796;DHT22;381;48.770;9.188;2022-12-29T16:39:45;12.40;99.90
796;DHT22;381;48.770;9.188;2022-12-29T16:44:47;12.40;99.90
796;DHT22;381;48.770;9.188;2022-12-29T16:49:51;12.40;99.90
796;DHT22;381;48.770;9.188;2022-12-29T16:54:58;12.30;99.90
796;DHT22;381;48.770;9.188;2022-12-29T17:00:05;12.30;99.90
796;DHT22;381;48.770;9.188;2022-12-29T17:05:12;12.20;99.90
796;DHT22;381;48.770;9.188;2022-12-29T17:10:16;12.20;99.90
796;DHT22;381;48.770;9.188;2022-12-29T17:15:23;12.10;99.90
796;DHT22;381;48.770;9.188;2022-12-29T17:20:28;11.90;99.90
796;DHT22;381;48.770;9.188;2022-12-29T17:25:35;11.80;99.90
796;DHT22;381;48.770;9.188;2022-12-29T17:30:39;11.70;99.90
796;DHT22;381;48.770;9.188;2022-12-29T17:35:41;11.60;99.90
796;DHT22;381;48.770;9.188;2022-12-29T17:40:45;11.50;99.90
796;DHT22;381;48.770;9.188;2022-12-29T17:45:51;11.50;99.90
796;DHT22;381;48.770;9.188;2022-12-29T17:50:56;11.40;99.90
796;DHT22;381;48.770;9.188;2022-12-29T17:56:00;11.30;99.90
796;DHT22;381;48.770;9.188;2022-12-29T18:01:03;11.20;99.90
796;DHT22;381;48.770;9.188;2022-12-29T18:06:07;11.20;99.90
796;DHT22;381;48.770;9.188;2022-12-29T18:11:20;11.20;99.90
796;DHT22;381;48.770;9.188;2022-12-29T18:16:23;11.10;99.90
796;DHT22;381;48.770;9.188;2022-12-29T18:21:26;11.10;99.90
796;DHT22;381;48.770;9.188;2022-12-29T18:26:30;11.10;99.90
796;DHT22;381;48.770;9.188;2022-12-29T18:31:36;11.20;99.90
796;DHT22;381;48.770;9.188;2022-12-29T18:36:38;11.20;99.90
796;DHT22;381;48.770;9.188;2022-12-29T18:41:41;11.10;99.90
796;DHT22;381;48.770;9.188;2022-12-29T18:46:43;11.10;99.90
796;DHT22;381;48.770;9.188;2022-12-29T18:51:47;11.10;99.90
796;DHT22;381;48.770;9.188;2022-12-29T18:56:50;11.10;99.90
796;DHT22;381;48.770;9.188;2022-12-29T19:01:52;11.10;99.90
796;DHT22;381;48.770;9.188;2022-12-29T19:06:54;11.00;99.90
796;DHT22;381;48.770;9.188;2022-12-29T19:11:58;11.00;99.90
796;DHT22;381;48.770;9.188;2022-12-29T19:17:00;10.90;99.90
796;DHT22;381;48.770;9.188;2022-12-29T19:22:02;10.90;99.90
796;DHT22;381;48.770;9.188;2022-12-29T19:27:05;10.90;99.90
796;DHT22;381;48.770;9.188;2022-12-29T19:32:07;10.80;99.90
796;DHT22;381;48.770;9.188;2022-12-29T19:37:09;10.80;99.90
796;DHT22;381;48.770;9.188;2022-12-29T19:42:13;10.80;99.90
796;DHT22;381;48.770;9.188;2022-12-29T19:47:15;10.70;99.90
796;DHT22;381;48.770;9.188;2022-12-29T19:52:17;10.70;99.90
796;DHT22;381;48.770;9.188;2022-12-29T19:57:21;10.70;99.90
796;DHT22;381;48.770;9.188;2022-12-29T20:02:25;10.60;99.90
796;DHT22;381;48.770;9.188;2022-12-29T20:07:28;10.60;99.90
796;DHT22;381;48.770;9.188;2022-12-29T20:12:31;10.50;99.90
796;DHT22;381;48.770;9.188;2022-12-29T20:17:35;10.50;99.90
796;DHT22;381;48.770;9.188;2022-12-29T20:22:37;10.40;99.90
796;DHT22;381;48.770;9.188;2022-12-29T20:27:40;10.30;99.90
796;DHT22;381;48.770;9.188;2022-12-29T20:32:42;10.30;99.90
796;DHT22;381;48.770;9.188;2022-12-29T20:37:45;10.20;99.90
796;DHT22;381;48.770;9.188;2022-12-29T20:42:48;10.20;99.90
796;DHT22;381;48.770;9.188;2022-12-29T20:47:50;10.20;99.90
796;DHT22;381;48.770;9.188;2022-12-29T20:52:52;10.20;99.90
796;DHT22;381;48.770;9.188;2022-12-29T20:57:56;10.20;99.90
796;DHT22;381;48.770;9.188;2022-12-29T21:02:58;10.20;99.90
796;DHT22;381;48.770;9.188;2022-12-29T21:08:00;10.20;99.90
796;DHT22;381;48.770;9.188;2022-12-29T21:13:04;10.20;99.90
796;DHT22;381;48.770;9.188;2022-12-29T21:18:06;10.20;99.90
796;DHT22;381;48.770;9.188;2022-12-29T21:23:08;10.10;99.90
796;DHT22;381;48.770;9.188;2022-12-29T21:28:12;10.10;99.90
796;DHT22;381;48.770;9.188;2022-12-29T21:33:14;10.00;99.90
796;DHT22;381;48.770;9.188;2022-12-29T21:38:16;10.00;99.90
796;DHT22;381;48.770;9.188;2022-12-29T21:43:19;9.90;99.90
796;DHT22;381;48.770;9.188;2022-12-29T21:48:21;9.90;99.90
796;DHT22;381;48.770;9.188;2022-12-29T21:53:24;9.70;99.90
796;DHT22;381;48.770;9.188;2022-12-29T21:58:40;9.70;99.90
796;DHT22;381;48.770;9.188;2022-12-29T22:04:00;9.60;99.90
796;DHT22;381;48.770;9.188;2022-12-29T22:09:20;9.50;99.90
796;DHT22;381;48.770;9.188;2022-12-29T22:14:41;9.40;99.90
796;DHT22;381;48.770;9.188;2022-12-29T22:19:43;9.30;99.90
796;DHT22;381;48.770;9.188;2022-12-29T22:24:45;9.20;99.90
796;DHT22;381;48.770;9.188;2022-12-29T22:29:48;9.10;99.90
796;DHT22;381;48.770;9.188;2022-12-29T22:34:51;9.10;99.90
796;DHT22;381;48.770;9.188;2022-12-29T22:39:53;9.10;99.90
796;DHT22;381;48.770;9.188;2022-12-29T22:44:56;9.10;99.90
796;DHT22;381;48.770;9.188;2022-12-29T22:49:58;9.10;99.90
796;DHT22;381;48.770;9.188;2022-12-29T22:55:01;9.10;99.90
796;DHT22;381;48.770;9.188;2022-12-29T23:00:07;9.20;99.90
796;DHT22;381;48.770;9.188;2022-12-29T23:05:09;9.20;99.90
796;DHT22;381;48.770;9.188;2022-12-29T23:10:11;9.30;99.90
796;DHT22;381;48.770;9.188;2022-12-29T23:15:14;9.40;99.90
796;DHT22;381;48.770;9.188;2022-12-29T23:20:17;9.50;99.90
796;DHT22;381;48.770;9.188;2022-12-29T23:25:19;9.50;99.90
796;DHT22;381;48.770;9.188;2022-12-29T23:30:22;9.60;99.90
796;DHT22;381;48.770;9.188;2022-12-29T23:35:25;9.60;99.90
796;DHT22;381;48.770;9.188;2022-12-29T23:40:27;9.70;99.90
796;DHT22;381;48.770;9.188;2022-12-29T23:45:34;9.80;99.90
796;DHT22;381;48.770;9.188;2022-12-29T23:50:38;9.80;99.90
796;DHT22;381;48.770;9.188;2022-12-29T23:55:42;9.70;99.90
